Lakewood Harbor, Texas
Current Conditions -  °F | °C
As of 8:51 AM on Friday 31 Oct 2014 (Local Time) from KACT Reporting Station
Clear Clear  
Wind Chill: 56°   Ceiling: Unl
Heat Index: 56°   Visibility: 10mi
Dew Point: 44°   Wind: 9mph
Humidity: 64%   Direction: 330°NNW
Pressure: 30.27"   Gusts: NA
Location:  31.7854°N, 97.5786°W
Report Text: KACT 311351Z 33008KT 10SM CLR 13/07 A3027 RMK AO2 SLP247 T01330067
Loading
Personal Weather Stations






























Interactive Weather Map
Tropical Storm Tracking
New forecast layout! Learn more

10-Day Weather Forecast

Advertisements
Track Severe Weather on mobile